createdAt,value
2022-10-14T00:03:31.738Z,16.6
2022-10-14T00:09:25.851Z,17.8
2022-10-14T00:15:37.398Z,17.7
2022-10-14T00:21:43.928Z,22.4
2022-10-14T00:27:38.168Z,17.2
2022-10-14T00:33:32.690Z,19.8
2022-10-14T00:39:26.707Z,20
2022-10-14T00:45:30.152Z,21.2
2022-10-14T00:51:31.412Z,24.3
2022-10-14T00:57:28.194Z,25.9
2022-10-14T01:09:50.035Z,31.1
2022-10-14T01:22:08.261Z,28.3
2022-10-14T01:28:17.365Z,31.2
2022-10-14T01:34:31.493Z,28.1
2022-10-14T01:40:38.200Z,30.3
2022-10-14T01:46:32.207Z,30.5
2022-10-14T01:52:34.178Z,28.2
2022-10-14T01:58:26.070Z,26.2
2022-10-14T02:04:19.028Z,26.1
2022-10-14T02:10:40.937Z,29
2022-10-14T02:16:48.448Z,24.7
2022-10-14T02:22:50.939Z,25.8
2022-10-14T02:28:43.207Z,22.9
2022-10-14T02:34:36.519Z,24.5
2022-10-14T02:40:36.735Z,22.8
2022-10-14T02:46:55.887Z,21
2022-10-14T02:53:01.824Z,20.6
2022-10-14T02:58:53.884Z,21.4
2022-10-14T03:05:11.601Z,21.2
2022-10-14T03:11:22.639Z,18.6
2022-10-14T03:17:14.928Z,22.5
2022-10-14T03:23:06.969Z,20.6
2022-10-14T03:29:02.497Z,21.8
2022-10-14T03:34:54.959Z,21.3
2022-10-14T03:40:46.654Z,22.3
2022-10-14T03:46:39.050Z,21.1
2022-10-14T03:52:36.345Z,21.7
2022-10-14T03:58:31.184Z,20.6
2022-10-14T04:04:25.669Z,23.6
2022-10-14T04:10:18.960Z,19.4
2022-10-14T04:16:17.101Z,18.4
2022-10-14T04:22:21.852Z,18.9
2022-10-14T04:28:29.194Z,20.3
2022-10-14T04:34:24.981Z,16.9
2022-10-14T04:40:33.244Z,20.9
2022-10-14T04:46:30.846Z,17.7
2022-10-14T04:52:38.413Z,19.9
2022-10-14T04:58:45.646Z,18.9
2022-10-14T05:04:46.432Z,15.7
2022-10-14T05:16:43.510Z,13
2022-10-14T05:22:46.775Z,12
2022-10-14T05:28:39.881Z,13.2
2022-10-14T05:34:44.802Z,15
2022-10-14T05:40:51.226Z,15.2
2022-10-14T05:46:59.061Z,15.2
2022-10-14T05:52:59.327Z,15
2022-10-14T05:59:03.109Z,15.8
2022-10-14T06:24:15.149Z,24.8
2022-10-14T07:45:03.266Z,20.7
2022-10-14T07:57:30.540Z,20.4
2022-10-14T08:03:23.281Z,20.3
2022-10-14T08:09:19.909Z,17.7
2022-10-14T08:15:18.482Z,19.5
2022-10-14T08:21:07.961Z,16.7
2022-10-14T08:27:11.308Z,20.2
2022-10-14T08:56:46.509Z,19.2
2022-10-14T09:02:41.224Z,20.4
2022-10-14T09:08:32.731Z,22.6
2022-10-14T09:14:27.469Z,20.5
2022-10-14T09:26:35.257Z,22.1
2022-10-14T09:32:48.074Z,20.4
2022-10-14T15:53:40.383Z,6.8
2022-10-14T15:59:33.169Z,3.6
2022-10-14T16:05:28.483Z,3.9
2022-10-14T16:11:22.211Z,4.5
2022-10-14T16:17:16.866Z,5.2
2022-10-14T16:23:13.431Z,3.2
2022-10-14T16:29:15.969Z,4.4
2022-10-14T16:35:10.181Z,5
2022-10-14T16:41:05.651Z,4
2022-10-14T16:46:57.089Z,4.3
2022-10-14T16:52:47.657Z,5
2022-10-14T16:58:42.290Z,3.9
2022-10-14T17:04:34.500Z,4.7
2022-10-14T17:10:27.292Z,6.6
2022-10-14T17:16:19.478Z,3.3
2022-10-14T17:22:11.100Z,4.6
2022-10-14T17:28:03.623Z,5.6
2022-10-14T17:33:57.356Z,6.1
2022-10-14T17:39:49.906Z,6.1
2022-10-14T17:45:54.336Z,6
2022-10-14T17:51:48.814Z,4.7
2022-10-14T17:57:39.661Z,7
2022-10-14T18:03:32.761Z,6.7
2022-10-14T18:09:21.852Z,5.4
2022-10-14T18:15:11.566Z,8.6
2022-10-14T18:21:05.253Z,7
2022-10-14T18:26:59.562Z,8.4
2022-10-14T18:32:51.978Z,7.7
2022-10-14T18:38:43.891Z,9
2022-10-14T18:44:34.445Z,8.2
2022-10-14T18:50:27.801Z,8.5
2022-10-14T18:56:18.807Z,7.6
2022-10-14T19:02:12.603Z,6.7
2022-10-14T19:08:03.799Z,16
2022-10-14T19:13:54.691Z,11.3
2022-10-14T19:19:48.066Z,8
2022-10-14T19:25:38.944Z,8.5
2022-10-14T19:31:29.502Z,15.3
2022-10-14T19:37:20.586Z,10.7
2022-10-14T19:43:11.550Z,9
2022-10-14T19:49:04.204Z,12.1
2022-10-14T19:54:55.808Z,5.5
2022-10-14T20:00:46.947Z,6.5
2022-10-14T20:06:38.618Z,5.6
2022-10-14T20:12:34.590Z,5.3
2022-10-14T20:18:31.706Z,5.4
2022-10-14T20:24:39.430Z,6.5
2022-10-14T20:30:32.882Z,5.9
2022-10-14T20:36:24.334Z,7.2
2022-10-14T20:42:16.662Z,6.5
2022-10-14T20:48:09.680Z,8.4
2022-10-14T20:54:13.245Z,7
2022-10-14T21:00:03.962Z,7.6
2022-10-14T21:05:54.635Z,8.5
2022-10-14T21:11:46.825Z,7.5
2022-10-14T21:17:37.710Z,6.1
2022-10-14T21:23:29.042Z,5.7
2022-10-14T21:29:28.340Z,5.3
2022-10-14T21:35:18.379Z,6.6
2022-10-14T21:41:12.161Z,8
2022-10-14T21:47:06.291Z,7.8
2022-10-14T21:52:58.985Z,7.8
2022-10-14T21:58:52.272Z,9
2022-10-14T22:04:44.531Z,8
2022-10-14T22:10:41.295Z,8.1
2022-10-14T22:16:35.500Z,7.9
